createdAt,value
2016-03-07T00:00:02.294Z,74.56
2016-03-07T00:01:02.313Z,73.8
2016-03-07T00:02:02.315Z,74.37
2016-03-07T00:03:02.319Z,74.56
2016-03-07T00:04:02.337Z,73.9
2016-03-07T00:05:02.340Z,73.9
2016-03-07T00:06:02.357Z,73.71
2016-03-07T00:07:02.376Z,74.37
2016-03-07T00:08:02.394Z,74.47
2016-03-07T00:09:02.396Z,74.37
2016-03-07T00:10:02.415Z,74.37
2016-03-07T00:11:02.418Z,74.37
2016-03-07T00:12:02.421Z,74.37
2016-03-07T00:13:02.440Z,74.66
2016-03-07T00:14:02.457Z,74.37
2016-03-07T00:15:02.459Z,74.28
2016-03-07T00:16:02.479Z,74.47
2016-03-07T00:17:02.481Z,74.18
2016-03-07T00:18:02.499Z,74.66
2016-03-07T00:19:02.518Z,74.56
2016-03-07T00:20:02.536Z,74.85
2016-03-07T00:21:02.539Z,74.75
2016-03-07T00:22:02.542Z,75.32
2016-03-07T00:23:02.559Z,75.23
2016-03-07T00:24:02.561Z,75.6
2016-03-07T00:25:02.581Z,75.04
2016-03-07T00:26:02.599Z,75.32
2016-03-07T00:27:02.616Z,75.6
2016-03-07T00:28:02.604Z,74.95
2016-03-07T00:29:02.622Z,75.23
2016-03-07T00:30:02.641Z,75.42
2016-03-07T00:31:02.644Z,75.13
2016-03-07T00:32:02.662Z,75.79
2016-03-07T00:33:02.665Z,75.79
2016-03-07T00:34:02.699Z,74.95
2016-03-07T00:35:02.686Z,75.79
2016-03-07T00:36:02.735Z,75.6
2016-03-07T00:37:02.721Z,75.6
2016-03-07T00:38:02.725Z,76.08
2016-03-07T00:39:02.743Z,75.89
2016-03-07T00:40:02.746Z,75.89
2016-03-07T00:41:02.765Z,76.36
2016-03-07T00:42:02.767Z,76.08
2016-03-07T00:43:02.785Z,76.17
2016-03-07T00:44:02.804Z,76.65
2016-03-07T00:45:02.806Z,76.36
2016-03-07T00:46:02.824Z,76.46
2016-03-07T00:47:02.828Z,76.55
2016-03-07T00:48:02.845Z,76.65
2016-03-07T00:49:02.848Z,76.46
2016-03-07T00:50:02.882Z,76.74
2016-03-07T00:51:02.884Z,77.12
2016-03-07T00:52:02.731Z,76.84
2016-03-07T00:53:02.890Z,76.93
2016-03-07T00:54:02.908Z,76.84
2016-03-07T00:55:02.927Z,76.93
2016-03-07T00:56:02.930Z,76.65
2016-03-07T00:57:02.947Z,76.74
2016-03-07T00:58:02.950Z,76.65
2016-03-07T00:59:02.969Z,76.65
2016-03-07T01:00:02.972Z,76.93
2016-03-07T01:01:03.005Z,76.55
2016-03-07T01:02:03.008Z,77.22
2016-03-07T01:03:03.011Z,77.31
2016-03-07T01:04:03.029Z,77.31
2016-03-07T01:05:03.047Z,77.22
2016-03-07T01:06:03.050Z,76.93
2016-03-07T01:07:03.084Z,77.31
2016-03-07T01:08:03.072Z,77.5
2016-03-07T01:09:03.074Z,77.31
2016-03-07T01:10:03.107Z,77.4
2016-03-07T01:11:03.110Z,77.5
2016-03-07T01:12:03.129Z,77.31
2016-03-07T01:13:03.131Z,77.4
2016-03-07T01:14:03.150Z,77.97
2016-03-07T01:15:03.153Z,77.78
2016-03-07T01:16:03.155Z,77.4
2016-03-07T01:17:03.174Z,77.59
2016-03-07T01:18:03.192Z,77.78
2016-03-07T01:19:03.210Z,77.69
2016-03-07T01:20:03.212Z,78.26
2016-03-07T01:21:03.215Z,77.69
2016-03-07T01:22:03.234Z,77.78
2016-03-07T01:23:03.252Z,77.78
2016-03-07T01:24:03.255Z,77.69
2016-03-07T01:25:03.273Z,77.78
2016-03-07T01:26:03.276Z,78.26
2016-03-07T01:27:03.295Z,78.26
2016-03-07T01:28:03.313Z,78.26
2016-03-07T01:29:03.299Z,78.13
2016-03-07T01:30:03.319Z,79.02
2016-03-07T01:31:03.336Z,78.83
2016-03-07T01:32:03.338Z,78.16
2016-03-07T01:33:03.357Z,78.26
2016-03-07T01:34:03.375Z,78.64
2016-03-07T01:35:03.377Z,78.54
2016-03-07T01:36:03.397Z,78.64
2016-03-07T01:37:03.399Z,78.73
2016-03-07T01:38:03.417Z,78.73
2016-03-07T01:39:03.436Z,78.73
2016-03-07T01:40:03.438Z,78.64
2016-03-07T01:41:03.457Z,78.64
2016-03-07T01:42:03.459Z,78.45
2016-03-07T01:43:03.493Z,78.45
2016-03-07T01:44:03.481Z,78.54
2016-03-07T01:45:03.499Z,78.64
2016-03-07T01:46:03.501Z,78.45
2016-03-07T01:47:03.520Z,78.26
2016-03-07T01:48:03.523Z,78.83
2016-03-07T01:49:03.540Z,78.83
2016-03-07T01:50:03.559Z,79.3
2016-03-07T01:51:03.561Z,79.11
2016-03-07T01:52:03.581Z,78.54
2016-03-07T01:53:03.583Z,79.11
2016-03-07T01:54:03.586Z,79.58
2016-03-07T01:55:03.636Z,79.58
2016-03-07T01:56:03.606Z,78.54
2016-03-07T01:57:03.641Z,79.68
2016-03-07T01:58:03.644Z,79.07
2016-03-07T01:59:03.677Z,79.21
2016-03-07T02:00:03.663Z,79.21
2016-03-07T02:01:03.683Z,79.55
2016-03-07T02:02:03.700Z,79.55
2016-03-07T02:03:03.703Z,78.5
2016-03-07T02:04:03.706Z,79.11
2016-03-07T02:05:03.724Z,78.69
2016-03-07T02:06:03.743Z,78.83
2016-03-07T02:07:03.746Z,79.45
2016-03-07T02:08:03.748Z,79.26
2016-03-07T02:09:03.782Z,79.58
2016-03-07T02:10:03.785Z,79.21
2016-03-07T02:11:03.788Z,79.39
2016-03-07T02:12:03.806Z,79.21
2016-03-07T02:13:03.824Z,79.49
2016-03-07T02:14:03.827Z,79.58
2016-03-07T02:15:03.829Z,79.17
2016-03-07T02:16:03.863Z,79.21
2016-03-07T02:17:03.851Z,79.64
2016-03-07T02:18:03.868Z,79.83
2016-03-07T02:19:03.887Z,79.45
2016-03-07T02:20:03.890Z,79.45
2016-03-07T02:21:03.909Z,79.93
2016-03-07T02:22:03.927Z,79.93
2016-03-07T02:23:03.929Z,79.93
2016-03-07T02:24:03.932Z,79.93
2016-03-07T02:25:03.966Z,79.74
2016-03-07T02:26:03.953Z,79.83
2016-03-07T02:27:03.987Z,79.64
2016-03-07T02:28:03.833Z,78.88
2016-03-07T02:29:03.993Z,79.55
2016-03-07T02:30:04.011Z,79.39
2016-03-07T02:31:04.029Z,79.17
2016-03-07T02:32:04.031Z,79.96
2016-03-07T02:33:04.050Z,79.55
2016-03-07T02:34:04.052Z,79.49
2016-03-07T02:35:04.071Z,79.96
2016-03-07T02:36:04.074Z,79.39
2016-03-07T02:37:04.155Z,79.07
2016-03-07T02:38:04.095Z,79.11
2016-03-07T02:39:04.113Z,79.64
2016-03-07T02:40:04.116Z,79.74
2016-03-07T02:41:04.134Z,79.36
2016-03-07T02:42:04.137Z,79.74
2016-03-07T02:43:04.155Z,79.26
2016-03-07T02:44:04.173Z,79.21
2016-03-07T02:45:04.177Z,79.39
2016-03-07T02:46:04.194Z,79.74
2016-03-07T02:47:04.213Z,79.07
2016-03-07T02:48:04.199Z,79.45
2016-03-07T02:49:04.234Z,79.64
2016-03-07T02:50:04.237Z,79.93
2016-03-07T02:51:04.254Z,79.83
2016-03-07T02:52:04.273Z,79.26
2016-03-07T02:53:04.276Z,79.07
2016-03-07T02:54:04.295Z,79.26
2016-03-07T02:55:04.297Z,79.64
2016-03-07T02:56:04.300Z,79.55
2016-03-07T02:57:04.317Z,79.26
2016-03-07T02:58:04.336Z,79.45
2016-03-07T02:59:04.354Z,79.58
2016-03-07T03:00:04.341Z,79.49
2016-03-07T03:01:04.360Z,79.58
2016-03-07T03:02:04.378Z,79.55
2016-03-07T03:03:04.381Z,79.49
2016-03-07T03:04:04.399Z,78.83
2016-03-07T03:05:04.417Z,78.45
2016-03-07T03:06:04.405Z,78.98
2016-03-07T03:07:04.422Z,79.3
2016-03-07T03:08:04.441Z,79.39
2016-03-07T03:09:04.444Z,79.55
2016-03-07T03:10:04.463Z,78.83
2016-03-07T03:11:04.480Z,79.49
2016-03-07T03:12:04.483Z,79.21
2016-03-07T03:13:04.502Z,79.26
2016-03-07T03:14:04.394Z,79.49
2016-03-07T03:15:04.522Z,79.68
2016-03-07T03:16:04.524Z,79.83
2016-03-07T03:17:04.544Z,79.74
2016-03-07T03:18:04.562Z,79.77
2016-03-07T03:19:04.580Z,79.83
2016-03-07T03:20:04.567Z,79.21
2016-03-07T03:21:04.601Z,79.07
2016-03-07T03:22:04.604Z,79.17
2016-03-07T03:23:04.622Z,79.83
2016-03-07T03:24:04.625Z,79.93
2016-03-07T03:25:04.643Z,80.3
2016-03-07T03:26:04.631Z,80.21
2016-03-07T03:27:04.664Z,79.93
2016-03-07T03:28:04.667Z,80.11
2016-03-07T03:29:04.685Z,80.3
2016-03-07T03:30:04.687Z,79.96
2016-03-07T03:31:04.706Z,80.11
2016-03-07T03:32:04.724Z,79.83
2016-03-07T03:33:04.742Z,80.21
2016-03-07T03:34:04.745Z,79.93
2016-03-07T03:35:04.748Z,79.74
2016-03-07T03:36:04.751Z,79.93
2016-03-07T03:37:04.769Z,79.77
2016-03-07T03:38:04.788Z,80.11
2016-03-07T03:39:04.805Z,79.36
2016-03-07T03:40:04.808Z,80.15
2016-03-07T03:41:04.827Z,80.4
2016-03-07T03:42:04.830Z,80.21
2016-03-07T03:43:04.847Z,80.21
2016-03-07T03:44:04.866Z,80.3
2016-03-07T03:45:04.853Z,80.49
2016-03-07T03:46:04.887Z,80.58
2016-03-07T03:47:04.874Z,80.11
2016-03-07T03:48:04.907Z,80.11
2016-03-07T03:49:04.895Z,79.93
2016-03-07T03:50:04.913Z,80.02
2016-03-07T03:51:04.916Z,80.21
2016-03-07T03:52:04.934Z,80.11
2016-03-07T03:53:04.937Z,80.49
2016-03-07T03:54:04.970Z,80.11
2016-03-07T03:55:04.958Z,80.49
2016-03-07T03:56:05.007Z,80.3
2016-03-07T03:57:04.995Z,80.49
2016-03-07T03:58:05.012Z,80.4
2016-03-07T03:59:05.016Z,80.3
2016-03-07T04:00:05.034Z,80.21
2016-03-07T04:01:05.037Z,80.96
2016-03-07T04:02:05.070Z,80.3
2016-03-07T04:03:05.073Z,79.93
2016-03-07T04:04:05.060Z,80.11
2016-03-07T04:05:05.079Z,80.49
2016-03-07T04:06:05.097Z,81.15
2016-03-07T04:07:05.116Z,80.4
2016-03-07T04:08:05.118Z,80.3
2016-03-07T04:09:05.121Z,79.74
2016-03-07T04:10:05.139Z,79.83
2016-03-07T04:11:05.158Z,79.36
2016-03-07T04:12:05.160Z,79.74
2016-03-07T04:13:05.178Z,79.93
2016-03-07T04:14:05.197Z,79.68
2016-03-07T04:15:05.200Z,79.74
2016-03-07T04:16:05.218Z,79.64
2016-03-07T04:17:05.235Z,79.74
2016-03-07T04:18:05.238Z,79.83
2016-03-07T04:19:05.241Z,79.74
2016-03-07T04:20:05.260Z,79.93
2016-03-07T04:21:05.278Z,80.11
2016-03-07T04:22:05.281Z,80.21
2016-03-07T04:23:05.298Z,79.83
2016-03-07T04:24:05.301Z,80.11
2016-03-07T04:25:05.304Z,80.21
2016-03-07T04:26:05.338Z,80.3
2016-03-07T04:27:05.340Z,80.3
2016-03-07T04:28:05.344Z,80.11
2016-03-07T04:29:05.362Z,79.83
2016-03-07T04:30:05.381Z,79.93
2016-03-07T04:31:05.383Z,79.93
2016-03-07T04:32:05.386Z,79.74
2016-03-07T04:33:05.403Z,79.55
2016-03-07T04:34:05.423Z,79.93
2016-03-07T04:35:05.425Z,79.74
2016-03-07T04:36:05.446Z,79.74
2016-03-07T04:37:05.433Z,79.26
2016-03-07T04:38:05.468Z,79.93
2016-03-07T04:39:05.470Z,79.64
2016-03-07T04:40:05.489Z,79.93
2016-03-07T04:41:05.479Z,79.74
2016-03-07T04:42:05.513Z,79.83
2016-03-07T04:43:05.500Z,79.74
2016-03-07T04:44:05.519Z,79.26
2016-03-07T04:45:05.537Z,79.07
2016-03-07T04:46:05.556Z,79.17
2016-03-07T04:47:05.558Z,79.74
2016-03-07T04:48:05.576Z,79.36
2016-03-07T04:49:05.579Z,79.64
2016-03-07T04:50:05.629Z,79.36
2016-03-07T04:51:05.647Z,79.17
2016-03-07T04:52:05.634Z,79.55
2016-03-07T04:53:05.637Z,79.55
2016-03-07T04:54:05.483Z,79.45
2016-03-07T04:55:05.658Z,79.26
2016-03-07T04:56:05.660Z,79.26
2016-03-07T04:57:05.725Z,79.17
2016-03-07T04:58:05.681Z,79.17
2016-03-07T04:59:05.700Z,79.55
2016-03-07T05:00:05.733Z,79.55
2016-03-07T05:01:05.752Z,79.26
2016-03-07T05:02:05.755Z,79.17
2016-03-07T05:03:05.726Z,79.26
2016-03-07T05:04:05.744Z,79.36
2016-03-07T05:05:05.762Z,79.17
2016-03-07T05:06:05.773Z,79.17
2016-03-07T05:07:05.776Z,79.36
2016-03-07T05:08:05.794Z,79.55
2016-03-07T05:09:05.813Z,79.55
2016-03-07T05:10:05.815Z,78.88
2016-03-07T05:11:05.833Z,78.88
2016-03-07T05:12:05.836Z,78.98
2016-03-07T05:13:05.854Z,79.55
2016-03-07T05:14:05.873Z,79.55
2016-03-07T05:15:05.875Z,79.07
2016-03-07T05:16:05.878Z,79.17
2016-03-07T05:17:05.912Z,79.17
2016-03-07T05:18:05.899Z,79.21
2016-03-07T05:19:05.917Z,79.07
2016-03-07T05:20:05.936Z,79.39
2016-03-07T05:21:05.938Z,78.79
2016-03-07T05:22:05.956Z,78.64
2016-03-07T05:23:05.975Z,78.88
2016-03-07T05:24:05.978Z,78.54
2016-03-07T05:25:05.980Z,79.21
2016-03-07T05:26:05.998Z,79.07
2016-03-07T05:27:06.001Z,79.21
2016-03-07T05:28:06.020Z,78.98
2016-03-07T05:29:06.038Z,78.88
2016-03-07T05:30:06.041Z,78.79
2016-03-07T05:31:06.043Z,78.88
2016-03-07T05:32:05.312Z,78.88
2016-03-07T05:33:06.080Z,79.17
2016-03-07T05:34:06.083Z,79.17
2016-03-07T05:35:06.101Z,79.64
2016-03-07T05:36:06.104Z,79.74
2016-03-07T05:37:06.122Z,79.55
2016-03-07T05:38:06.141Z,80.02
2016-03-07T05:39:06.158Z,79.74
2016-03-07T05:40:06.161Z,79.45
2016-03-07T05:41:06.164Z,79.26
2016-03-07T05:42:06.182Z,79.45
2016-03-07T05:43:06.185Z,79.26
2016-03-07T05:44:06.203Z,79.17
2016-03-07T05:45:06.221Z,79.45
2016-03-07T05:46:06.224Z,79.64
2016-03-07T05:47:06.243Z,79.55
2016-03-07T05:48:06.245Z,79.07
2016-03-07T05:49:06.264Z,79.45
2016-03-07T05:50:06.281Z,79.17
2016-03-07T05:51:06.285Z,79.74
2016-03-07T05:52:06.303Z,79.21
2016-03-07T05:53:06.306Z,79.17
2016-03-07T05:54:06.308Z,79.07
2016-03-07T05:55:06.327Z,79.17
2016-03-07T05:56:06.345Z,79.26
2016-03-07T05:57:06.364Z,79.93
2016-03-07T05:58:06.350Z,79.74
2016-03-07T05:59:06.369Z,79.93
2016-03-07T06:00:06.387Z,79.55
2016-03-07T06:01:06.390Z,79.74
2016-03-07T06:02:06.408Z,79.36
2016-03-07T06:03:06.427Z,79.55
2016-03-07T06:04:06.444Z,79.17
2016-03-07T06:05:06.447Z,79.26
2016-03-07T06:06:06.450Z,79.17
2016-03-07T06:07:06.468Z,79.74
2016-03-07T06:08:06.471Z,79.64
2016-03-07T06:09:06.489Z,79.93
2016-03-07T06:10:06.524Z,79.74
2016-03-07T06:11:06.510Z,79.74
2016-03-07T06:12:06.529Z,79.83
2016-03-07T06:13:06.531Z,80.02
2016-03-07T06:14:06.549Z,79.83
2016-03-07T06:15:06.552Z,79.64
2016-03-07T06:16:06.571Z,78.98
2016-03-07T06:17:06.589Z,79.45
2016-03-07T06:18:06.592Z,79.45
2016-03-07T06:19:06.594Z,79.64
2016-03-07T06:20:06.613Z,79.64
2016-03-07T06:21:06.646Z,79.74
2016-03-07T06:22:06.634Z,79.74
2016-03-07T06:23:06.651Z,79.26
2016-03-07T06:24:06.655Z,79.55
2016-03-07T06:25:06.673Z,79.93
2016-03-07T06:26:06.676Z,79.74
2016-03-07T06:27:06.709Z,79.74
2016-03-07T06:28:06.712Z,79.93
2016-03-07T06:29:06.715Z,79.74
2016-03-07T06:30:06.734Z,79.55
2016-03-07T06:31:06.767Z,79.64
2016-03-07T06:32:06.755Z,79.93
2016-03-07T06:33:06.772Z,79.87
2016-03-07T06:34:06.775Z,79.96
2016-03-07T06:35:06.794Z,79.17
2016-03-07T06:36:06.796Z,79.58
2016-03-07T06:37:06.830Z,79.49
2016-03-07T06:38:06.817Z,78.83
2016-03-07T06:39:06.836Z,78.92
2016-03-07T06:40:06.854Z,79.49
2016-03-07T06:41:06.857Z,79.02
2016-03-07T06:42:06.874Z,78.73
2016-03-07T06:43:06.878Z,78.73
2016-03-07T06:44:06.896Z,78.64
2016-03-07T06:45:06.899Z,78.35
2016-03-07T06:46:06.901Z,78.26
2016-03-07T06:47:06.935Z,78.07
2016-03-07T06:48:06.937Z,78.26
2016-03-07T06:49:06.957Z,78.73
2016-03-07T06:50:06.943Z,78.54
2016-03-07T06:51:06.977Z,78.45
2016-03-07T06:52:06.980Z,77.88
2016-03-07T06:53:07.015Z,77.78
2016-03-07T06:54:07.017Z,77.22
2016-03-07T06:55:07.020Z,77.31
2016-03-07T06:56:07.022Z,77.03
2016-03-07T06:57:07.020Z,76.46
2016-03-07T06:58:07.039Z,76.93
2016-03-07T06:59:07.043Z,77.31
2016-03-07T07:00:07.031Z,77.22
2016-03-07T07:01:07.019Z,76.93
2016-03-07T07:02:07.026Z,77.22
2016-03-07T07:03:07.039Z,77.12
2016-03-07T07:04:07.036Z,76.55
2016-03-07T07:05:07.065Z,76.27
2016-03-07T07:06:07.045Z,76.55
2016-03-07T07:07:07.060Z,76.46
2016-03-07T07:08:07.077Z,76.55
2016-03-07T07:09:07.078Z,76.74
2016-03-07T07:10:07.094Z,76.65
2016-03-07T07:11:07.095Z,76.65
2016-03-07T07:12:07.096Z,77.5
2016-03-07T07:13:07.114Z,77.88
2016-03-07T07:14:07.132Z,77.88
2016-03-07T07:15:07.135Z,77.78
2016-03-07T07:16:07.152Z,77.97
2016-03-07T07:17:07.190Z,78.26
2016-03-07T07:18:07.177Z,77.88
2016-03-07T07:19:07.180Z,77.31
2016-03-07T07:20:07.198Z,77.31
2016-03-07T07:21:07.216Z,77.12
2016-03-07T07:22:07.218Z,77.78
2016-03-07T07:23:07.236Z,77.22
2016-03-07T07:24:07.240Z,77.88
2016-03-07T07:25:07.242Z,77.78
2016-03-07T07:26:07.260Z,78.35
2016-03-07T07:27:07.278Z,78.54
2016-03-07T07:28:07.296Z,78.54
2016-03-07T07:29:07.298Z,78.07
2016-03-07T07:30:07.301Z,77.78
2016-03-07T07:31:07.336Z,77.4
2016-03-07T07:32:07.339Z,78.16
2016-03-07T07:33:07.357Z,77.5
2016-03-07T07:34:07.359Z,76.93
2016-03-07T07:35:07.394Z,76.74
2016-03-07T07:36:07.381Z,77.12
2016-03-07T07:37:07.399Z,77.03
2016-03-07T07:38:07.433Z,76.89
2016-03-07T07:39:07.420Z,76.51
2016-03-07T07:40:07.438Z,76.74
2016-03-07T07:41:07.441Z,76.46
2016-03-07T07:42:07.458Z,76.74
2016-03-07T07:43:07.478Z,76.74
2016-03-07T07:44:07.496Z,76.93
2016-03-07T07:45:07.483Z,76.55
2016-03-07T07:46:07.501Z,76.93
2016-03-07T07:47:07.520Z,77.31
2016-03-07T07:48:07.522Z,77.4
2016-03-07T07:49:07.525Z,77.69
2016-03-07T07:50:07.543Z,76.55
2016-03-07T07:51:07.562Z,75.23
2016-03-07T07:52:07.564Z,75.7
2016-03-07T07:53:07.598Z,76.27
2016-03-07T07:54:07.615Z,76.46
2016-03-07T07:55:07.618Z,75.98
2016-03-07T07:56:07.621Z,75.7
2016-03-07T07:57:07.640Z,75.7
2016-03-07T07:58:07.643Z,75.42
2016-03-07T07:59:07.645Z,75.04
2016-03-07T08:00:07.664Z,74.75
2016-03-07T08:01:07.682Z,74.66
2016-03-07T08:02:07.685Z,74.85
2016-03-07T08:03:07.703Z,74.66
2016-03-07T08:04:07.737Z,74.66
2016-03-07T08:05:07.770Z,74.98
2016-03-07T08:06:07.773Z,74.79
2016-03-07T08:07:07.775Z,74.79
2016-03-07T08:08:07.763Z,74.88
2016-03-07T08:09:07.766Z,74.79
2016-03-07T08:10:07.784Z,73.46
2016-03-07T08:11:07.786Z,72.99
2016-03-07T08:12:07.806Z,72.89
2016-03-07T08:13:07.824Z,72.99
2016-03-07T08:14:07.827Z,73.08
2016-03-07T08:15:07.845Z,72.33
2016-03-07T08:16:07.863Z,71.47
2016-03-07T08:17:07.866Z,70.72
2016-03-07T08:18:07.884Z,70.9
2016-03-07T08:19:07.902Z,70.62
2016-03-07T08:20:07.921Z,71.66
2016-03-07T08:21:07.907Z,71.47
2016-03-07T08:22:07.926Z,71.85
2016-03-07T08:23:07.943Z,71.28
2016-03-07T08:24:07.946Z,71.38
2016-03-07T08:25:07.949Z,70.72
2016-03-07T08:26:07.984Z,70.43
2016-03-07T08:27:07.987Z,70.24
2016-03-07T08:28:08.005Z,69.86
2016-03-07T08:29:08.023Z,70.34
2016-03-07T08:30:08.026Z,70.43
2016-03-07T08:31:08.028Z,70.15
2016-03-07T08:32:08.062Z,70.15
2016-03-07T08:33:08.065Z,70.34
2016-03-07T08:34:08.083Z,70.05
2016-03-07T08:35:08.086Z,69.96
2016-03-07T08:36:08.089Z,70.15
2016-03-07T08:37:08.106Z,69.77
2016-03-07T08:38:08.125Z,69.42
2016-03-07T08:39:08.144Z,68.76
2016-03-07T08:40:08.146Z,68.76
2016-03-07T08:41:08.165Z,68.29
2016-03-07T08:42:08.167Z,68.48
2016-03-07T08:43:08.186Z,68
2016-03-07T08:44:08.204Z,67.71
2016-03-07T08:45:08.207Z,67.43
2016-03-07T08:46:08.210Z,68
2016-03-07T08:47:08.228Z,67.9
2016-03-07T08:48:08.261Z,67.71
2016-03-07T08:49:08.263Z,67.81
2016-03-07T08:50:08.283Z,68.1
2016-03-07T08:51:08.285Z,67.56
2016-03-07T08:52:08.304Z,67.37
2016-03-07T08:53:08.306Z,66.04
2016-03-07T08:54:08.309Z,65.37
2016-03-07T08:55:08.327Z,64.71
2016-03-07T08:56:08.345Z,63.95
2016-03-07T08:57:08.364Z,63.86
2016-03-07T08:58:08.382Z,63.95
2016-03-07T08:59:08.401Z,64.43
2016-03-07T09:00:08.418Z,63.86
2016-03-07T09:01:08.406Z,64.14
2016-03-07T09:02:08.423Z,63.95
2016-03-07T09:03:08.443Z,64.33
2016-03-07T09:04:08.461Z,64.52
2016-03-07T09:05:08.464Z,64.14
2016-03-07T09:06:08.498Z,64.08
2016-03-07T09:07:08.500Z,63.48
2016-03-07T09:08:08.503Z,63.98
2016-03-07T09:09:08.521Z,64.33
2016-03-07T09:10:08.524Z,64.46
2016-03-07T09:11:08.558Z,64.33
2016-03-07T09:12:08.561Z,64.05
2016-03-07T09:13:08.563Z,63.95
2016-03-07T09:14:08.581Z,63.6
2016-03-07T09:15:08.472Z,63.6
2016-03-07T09:16:08.602Z,63.32
2016-03-07T09:17:08.621Z,63.13
2016-03-07T09:18:08.639Z,63.13
2016-03-07T09:19:08.658Z,62.46
2016-03-07T09:20:08.660Z,62.46
2016-03-07T09:21:08.679Z,62.37
2016-03-07T09:22:08.697Z,62.37
2016-03-07T09:23:08.685Z,62.37
2016-03-07T09:24:08.732Z,62.46
2016-03-07T09:25:08.782Z,62.27
2016-03-07T09:26:08.738Z,61.71
2016-03-07T09:27:08.741Z,60.95
2016-03-07T09:28:08.759Z,59.91
2016-03-07T09:29:08.778Z,59.62
2016-03-07T09:30:08.812Z,59.52
2016-03-07T09:31:08.815Z,59.46
2016-03-07T09:32:08.817Z,58.7
2016-03-07T09:33:08.836Z,57.94
2016-03-07T09:34:08.839Z,58.03
2016-03-07T09:35:08.857Z,57.65
2016-03-07T09:36:08.890Z,57.11
2016-03-07T09:37:08.892Z,55.59
2016-03-07T09:38:08.895Z,55.5
2016-03-07T09:39:08.898Z,55.88
2016-03-07T09:40:08.933Z,55.3
2016-03-07T09:41:08.951Z,54.93
2016-03-07T09:42:08.954Z,54.74
2016-03-07T09:43:08.972Z,54.19
2016-03-07T09:44:09.022Z,53.05
2016-03-07T09:45:09.040Z,52.86
2016-03-07T09:46:09.011Z,51.72
2016-03-07T09:47:09.014Z,51.43
2016-03-07T09:48:09.032Z,51.34
2016-03-07T09:49:09.050Z,51.53
2016-03-07T09:50:09.052Z,50.29
2016-03-07T09:51:09.087Z,50.01
2016-03-07T09:52:09.090Z,48.77
2016-03-07T09:53:09.108Z,48.96
2016-03-07T09:54:09.127Z,48.58
2016-03-07T09:55:09.145Z,49.73
2016-03-07T09:56:09.148Z,49.15
2016-03-07T09:57:09.588Z,50.58
2016-03-07T09:58:09.182Z,51.7
2016-03-07T09:59:09.200Z,53.31
2016-03-07T10:00:09.218Z,54.45
2016-03-07T10:01:09.221Z,54.83
2016-03-07T10:02:09.224Z,55.28
2016-03-07T10:03:09.257Z,54.14
2016-03-07T10:04:09.244Z,53.28
2016-03-07T10:05:09.278Z,53.19
2016-03-07T10:06:09.298Z,54.02
2016-03-07T10:07:09.301Z,54.97
2016-03-07T10:08:09.318Z,56.29
2016-03-07T10:09:09.321Z,56.68
2016-03-07T10:10:09.355Z,56.96
2016-03-07T10:11:09.342Z,56.96
2016-03-07T10:12:09.392Z,56.87
2016-03-07T10:13:09.363Z,56.29
2016-03-07T10:14:09.397Z,56.29
2016-03-07T10:15:09.431Z,56.29
2016-03-07T10:16:09.418Z,55.82
2016-03-07T10:17:09.438Z,55.44
2016-03-07T10:18:09.440Z,55.16
2016-03-07T10:19:09.459Z,55.82
2016-03-07T10:20:09.477Z,55.63
2016-03-07T10:21:09.496Z,56.68
2016-03-07T10:22:09.498Z,57.43
2016-03-07T10:23:09.501Z,57.79
2016-03-07T10:24:09.534Z,57.88
2016-03-07T10:25:09.538Z,58.45
2016-03-07T10:26:09.556Z,57.98
2016-03-07T10:27:09.574Z,58.26
2016-03-07T10:28:09.576Z,57.98
2016-03-07T10:29:09.595Z,56.77
2016-03-07T10:30:09.676Z,56.46
2016-03-07T10:31:09.632Z,56.08
2016-03-07T10:32:09.634Z,58.17
2016-03-07T10:33:09.637Z,59.68
2016-03-07T10:34:09.671Z,60.63
2016-03-07T10:35:09.658Z,61.3
2016-03-07T10:36:09.692Z,61.58
2016-03-07T10:37:09.694Z,62.43
2016-03-07T10:38:09.728Z,62.62
2016-03-07T10:39:09.716Z,62.43
2016-03-07T10:40:09.734Z,62.34
2016-03-07T10:41:09.736Z,62.43
2016-03-07T10:42:09.786Z,62.62
2016-03-07T10:43:09.774Z,62.34
2016-03-07T10:44:09.776Z,62.53
2016-03-07T10:45:09.825Z,62.34
2016-03-07T10:46:09.813Z,62.43
2016-03-07T10:47:09.831Z,62.53
2016-03-07T10:48:09.833Z,63.67
2016-03-07T10:49:09.852Z,64.33
2016-03-07T10:50:09.871Z,64.33
2016-03-07T10:51:09.888Z,63.57
2016-03-07T10:52:09.891Z,62.34
2016-03-07T10:53:09.910Z,61.11
2016-03-07T10:54:09.928Z,60.25
2016-03-07T10:55:09.931Z,60.53
2016-03-07T10:56:09.948Z,59.68
2016-03-07T10:57:09.952Z,59.59
2016-03-07T10:58:09.970Z,59.4
2016-03-07T10:59:09.973Z,60.63
2016-03-07T11:00:10.135Z,60.63
2016-03-07T11:01:10.001Z,60.73
2016-03-07T11:02:10.020Z,60.63
2016-03-07T11:03:12.896Z,60.73
2016-03-07T11:04:10.056Z,60.82
2016-03-07T11:05:10.058Z,60.82
2016-03-07T11:06:10.061Z,60.82
2016-03-07T11:07:10.079Z,61.01
2016-03-07T11:08:10.097Z,60.63
2016-03-07T11:09:10.132Z,60.53
2016-03-07T11:10:10.119Z,61.01
2016-03-07T11:11:10.122Z,61.68
2016-03-07T11:12:10.155Z,62.05
2016-03-07T11:13:10.158Z,62.24
2016-03-07T11:14:10.177Z,62.34
2016-03-07T11:15:10.195Z,62.37
2016-03-07T11:16:10.197Z,61.14
2016-03-07T11:17:10.231Z,61.58
2016-03-07T11:18:10.218Z,62.62
2016-03-07T11:19:10.237Z,63.1
2016-03-07T11:20:10.254Z,63.67
2016-03-07T11:21:10.257Z,63.57
2016-03-07T11:22:10.276Z,63.39
2016-03-07T11:23:10.278Z,63.76
2016-03-07T11:24:10.298Z,63.39
2016-03-07T11:25:10.331Z,63.1
2016-03-07T11:26:10.333Z,62.43
2016-03-07T11:27:10.336Z,61.01
2016-03-07T11:28:10.355Z,60.82
2016-03-07T11:29:10.357Z,61.01
2016-03-07T11:30:10.391Z,61.11
2016-03-07T11:31:10.394Z,60.06
2016-03-07T11:32:10.397Z,59.3
2016-03-07T11:33:10.414Z,59.49
2016-03-07T11:34:10.433Z,58.36
2016-03-07T11:35:10.436Z,58.36
2016-03-07T11:36:10.438Z,57.79
2016-03-07T11:37:10.457Z,57.88
2016-03-07T11:38:10.491Z,57.59
2016-03-07T11:39:10.494Z,57.62
2016-03-07T11:40:10.512Z,57.62
2016-03-07T11:41:10.498Z,57.43
2016-03-07T11:42:10.533Z,57.62
2016-03-07T11:43:10.551Z,57.18
2016-03-07T11:44:10.569Z,56.61
2016-03-07T11:45:10.571Z,56.32
2016-03-07T11:46:10.591Z,55.66
2016-03-07T11:47:10.593Z,55.76
2016-03-07T11:48:10.595Z,55.28
2016-03-07T11:49:10.630Z,55.73
2016-03-07T11:50:10.632Z,55.85
2016-03-07T11:51:10.634Z,56.51
2016-03-07T11:52:10.654Z,55.47
2016-03-07T11:53:10.673Z,56.13
2016-03-07T11:54:10.690Z,55.28
2016-03-07T11:55:10.708Z,55.28
2016-03-07T11:56:10.726Z,54.33
2016-03-07T11:57:10.729Z,54.24
2016-03-07T11:58:10.731Z,53.19
2016-03-07T11:59:10.609Z,52.81
2016-03-07T12:00:10.753Z,52.62
2016-03-07T12:01:10.787Z,52.72
2016-03-07T12:02:10.790Z,52.81
2016-03-07T12:03:10.792Z,52.84
2016-03-07T12:04:10.811Z,52.45
2016-03-07T12:05:10.829Z,51.79
2016-03-07T12:06:10.835Z,50.84
2016-03-07T12:07:10.886Z,50.39
2016-03-07T12:08:10.884Z,49.54
2016-03-07T12:09:10.886Z,48.87
2016-03-07T12:10:10.904Z,48.87
2016-03-07T12:11:10.924Z,48.96
2016-03-07T12:12:10.926Z,48.49
2016-03-07T12:13:10.943Z,48.03
2016-03-07T12:14:10.978Z,47.92
2016-03-07T12:15:10.965Z,48.58
2016-03-07T12:16:10.983Z,48.49
2016-03-07T12:17:11.001Z,48.77
2016-03-07T12:18:11.005Z,48.39
2016-03-07T12:19:11.038Z,49.15
2016-03-07T12:20:11.040Z,48.77
2016-03-07T12:21:11.043Z,48.85
2016-03-07T12:22:11.062Z,48.75
2016-03-07T12:23:11.081Z,49.51
2016-03-07T12:24:11.083Z,49.79
2016-03-07T12:25:11.133Z,50.37
2016-03-07T12:26:11.120Z,50.93
2016-03-07T12:27:11.138Z,50.93
2016-03-07T12:28:11.156Z,51.03
2016-03-07T12:29:11.003Z,50.93
2016-03-07T12:30:11.178Z,51.22
2016-03-07T12:31:11.196Z,50.93
2016-03-07T12:32:11.214Z,50.91
2016-03-07T12:33:11.217Z,50.53
2016-03-07T12:34:11.328Z,50.91
2016-03-07T12:35:11.238Z,50.81
2016-03-07T12:36:11.303Z,51.1
2016-03-07T12:37:11.274Z,51.67
2016-03-07T12:38:11.293Z,51.67
2016-03-07T12:39:11.296Z,51.86
2016-03-07T12:40:11.313Z,51.01
2016-03-07T12:41:11.332Z,51.2
2016-03-07T12:42:11.350Z,51.64
2016-03-07T12:43:11.353Z,51.74
2016-03-07T12:44:11.371Z,51.45
2016-03-07T12:45:11.374Z,50.89
2016-03-07T12:46:11.393Z,50.43
2016-03-07T12:47:11.410Z,50.24
2016-03-07T12:48:11.429Z,50.43
2016-03-07T12:49:11.431Z,49.74
2016-03-07T12:50:11.451Z,49.49
2016-03-07T12:51:11.468Z,49.01
2016-03-07T12:52:11.470Z,49.39
2016-03-07T12:53:11.490Z,49.29
2016-03-07T12:54:11.492Z,49.01